createdAt,value
2018-09-06T00:02:25.717Z,45.53
2018-09-06T00:07:37.992Z,45.10
2018-09-06T00:10:09.215Z,45.72
2018-09-06T00:12:40.398Z,45.69
2018-09-06T00:15:11.666Z,45.44
2018-09-06T00:17:43.214Z,45.39
2018-09-06T00:20:14.453Z,45.43
2018-09-06T00:22:45.643Z,45.14
2018-09-06T00:25:16.780Z,45.37
2018-09-06T00:27:47.906Z,45.53
2018-09-06T00:33:05.437Z,45.18
2018-09-06T00:35:36.806Z,45.33
2018-09-06T00:38:08.456Z,45.46
2018-09-06T00:40:39.707Z,45.30
2018-09-06T00:43:10.763Z,45.16
2018-09-06T00:45:41.980Z,45.62
2018-09-06T00:48:13.005Z,45.34
2018-09-06T00:50:44.194Z,45.29
2018-09-06T00:53:15.406Z,45.59
2018-09-06T00:55:46.750Z,45.85
2018-09-06T00:58:17.778Z,45.64
2018-09-06T01:00:48.986Z,45.52
2018-09-06T01:03:20.047Z,45.41
2018-09-06T01:05:52.878Z,45.42
2018-09-06T01:08:23.896Z,45.85
2018-09-06T01:10:54.894Z,45.33
2018-09-06T01:13:25.893Z,45.60
2018-09-06T01:15:57.484Z,45.48
2018-09-06T01:18:28.656Z,45.49
2018-09-06T01:21:00.304Z,45.46
2018-09-06T01:23:31.539Z,46.04
2018-09-06T01:26:02.804Z,45.53
2018-09-06T01:28:33.541Z,45.90
2018-09-06T01:31:05.488Z,45.77
2018-09-06T01:33:36.708Z,45.58
2018-09-06T01:36:13.208Z,45.83
2018-09-06T01:38:44.371Z,45.72
2018-09-06T01:41:15.684Z,46.07
2018-09-06T01:43:46.682Z,45.99
2018-09-06T01:46:18.226Z,46.16
2018-09-06T01:48:49.489Z,45.90
2018-09-06T01:51:20.681Z,45.57
2018-09-06T01:53:51.720Z,45.72
2018-09-06T01:56:22.780Z,45.89
2018-09-06T01:58:53.582Z,45.57
2018-09-06T02:01:24.414Z,45.75
2018-09-06T02:03:56.795Z,45.85
2018-09-06T02:06:27.534Z,45.77
2018-09-06T02:08:58.486Z,45.98
2018-09-06T02:11:29.690Z,45.94
2018-09-06T02:14:00.759Z,46.12
2018-09-06T02:16:31.631Z,45.80
2018-09-06T02:19:02.696Z,45.75
2018-09-06T02:21:33.709Z,46.16
2018-09-06T02:24:04.800Z,45.86
2018-09-06T02:26:35.866Z,45.77
2018-09-06T02:29:06.856Z,45.66
2018-09-06T02:31:37.845Z,45.80
2018-09-06T02:34:09.834Z,46.27
2018-09-06T02:36:40.798Z,45.79
2018-09-06T02:41:56.612Z,45.55
2018-09-06T02:44:27.709Z,46.16
2018-09-06T02:46:58.720Z,45.84
2018-09-06T02:49:35.222Z,46.03
2018-09-06T02:52:06.346Z,45.79
2018-09-06T02:54:37.546Z,45.79
2018-09-06T02:57:08.614Z,46.24
2018-09-06T02:59:39.693Z,45.74
2018-09-06T03:02:10.734Z,45.47
2018-09-06T03:04:41.824Z,45.99
2018-09-06T03:07:12.811Z,45.64
2018-09-06T03:09:43.815Z,45.60
2018-09-06T03:12:14.858Z,45.61
2018-09-06T03:14:45.853Z,45.18
2018-09-06T03:17:16.816Z,45.56
2018-09-06T03:19:47.827Z,45.71
2018-09-06T03:22:18.850Z,45.63
2018-09-06T03:24:49.828Z,45.50
2018-09-06T03:27:20.852Z,45.75
2018-09-06T03:29:51.643Z,45.57
2018-09-06T03:32:22.633Z,45.55
2018-09-06T03:37:09.783Z,45.92
2018-09-06T03:39:40.618Z,45.82
2018-09-06T03:42:11.733Z,46.01
2018-09-06T03:44:42.795Z,45.83
2018-09-06T03:47:13.869Z,46.08
2018-09-06T03:49:44.810Z,45.78
2018-09-06T03:52:15.827Z,46.15
2018-09-06T03:54:46.877Z,46.23
2018-09-06T03:57:18.402Z,45.65
2018-09-06T03:59:49.737Z,46.08
2018-09-06T04:02:21.341Z,45.70
2018-09-06T04:04:52.881Z,45.36
2018-09-06T04:07:24.541Z,45.03
2018-09-06T04:09:55.923Z,45.97
2018-09-06T04:12:26.579Z,45.28
2018-09-06T04:14:57.881Z,45.84
2018-09-06T04:17:29.375Z,45.42
2018-09-06T04:20:00.846Z,45.55
2018-09-06T04:22:32.412Z,45.82
2018-09-06T04:25:03.753Z,45.65
2018-09-06T04:27:35.009Z,45.87
2018-09-06T04:30:06.740Z,45.39
2018-09-06T04:32:38.380Z,45.61
2018-09-06T04:36:59.427Z,46.09
2018-09-06T04:39:30.685Z,45.36
2018-09-06T04:42:01.801Z,45.22
2018-09-06T04:44:32.862Z,45.47
2018-09-06T04:47:04.428Z,45.79
2018-09-06T04:49:35.789Z,45.39
2018-09-06T04:52:07.410Z,45.53
2018-09-06T04:54:38.901Z,45.92
2018-09-06T04:57:10.565Z,46.18
2018-09-06T04:59:42.037Z,45.43
2018-09-06T05:02:13.711Z,45.58
2018-09-06T05:04:45.314Z,45.82
2018-09-06T05:07:16.773Z,45.55
2018-09-06T05:09:48.362Z,45.73
2018-09-06T05:12:19.748Z,45.31
2018-09-06T05:14:51.316Z,45.43
2018-09-06T05:17:22.835Z,45.71
2018-09-06T05:19:54.397Z,46.29
2018-09-06T05:22:26.220Z,46.02
2018-09-06T05:24:57.738Z,45.76
2018-09-06T05:27:29.319Z,45.80
2018-09-06T05:30:00.811Z,45.96
2018-09-06T05:32:32.367Z,46.16
2018-09-06T05:35:03.825Z,46.03
2018-09-06T05:37:35.586Z,45.73
2018-09-06T05:40:07.210Z,46.16
2018-09-06T05:42:38.829Z,46.33
2018-09-06T05:45:10.308Z,46.22
2018-09-06T05:47:41.796Z,45.81
2018-09-06T05:50:13.342Z,45.98
2018-09-06T05:52:45.225Z,45.52
2018-09-06T05:55:16.734Z,45.58
2018-09-06T05:57:48.432Z,45.76
2018-09-06T06:00:24.999Z,45.52
2018-09-06T06:02:58.215Z,45.61
2018-09-06T06:05:29.812Z,45.82
2018-09-06T06:08:23.873Z,46.00
2018-09-06T06:10:55.562Z,46.19
2018-09-06T06:13:26.993Z,45.59
2018-09-06T06:15:58.626Z,45.93
2018-09-06T06:18:29.993Z,45.40
2018-09-06T06:21:01.577Z,45.14
2018-09-06T06:23:32.910Z,45.80
2018-09-06T06:26:04.678Z,45.93
2018-09-06T06:28:36.204Z,45.47
2018-09-06T06:31:07.704Z,45.31
2018-09-06T06:33:39.602Z,45.40
2018-09-06T06:36:11.202Z,45.39
2018-09-06T06:38:42.750Z,45.60
2018-09-06T06:41:14.424Z,45.37
2018-09-06T06:43:45.844Z,45.68
2018-09-06T06:46:17.501Z,45.12
2018-09-06T06:48:48.990Z,45.42
2018-09-06T06:51:20.622Z,45.47
2018-09-06T06:53:52.405Z,45.24
2018-09-06T06:56:23.887Z,45.36
2018-09-06T06:58:54.553Z,45.07
2018-09-06T07:01:26.187Z,45.45
2018-09-06T07:03:57.687Z,44.92
2018-09-06T07:06:29.217Z,44.92
2018-09-06T07:09:00.789Z,44.88
2018-09-06T07:11:32.310Z,45.06
2018-09-06T07:14:03.818Z,45.16
2018-09-06T07:16:35.328Z,45.23
2018-09-06T07:19:06.992Z,45.21
2018-09-06T07:21:38.666Z,44.93
2018-09-06T07:24:10.217Z,44.73
2018-09-06T07:26:41.734Z,44.88
2018-09-06T07:29:13.320Z,45.03
2018-09-06T07:31:44.784Z,45.17
2018-09-06T07:34:16.366Z,45.09
2018-09-06T07:36:48.005Z,45.18
2018-09-06T07:39:19.585Z,44.78
2018-09-06T07:43:06.559Z,45.10
2018-09-06T07:45:37.733Z,45.09
2018-09-06T07:48:08.573Z,44.70
2018-09-06T07:50:39.490Z,44.59
2018-09-06T07:53:10.620Z,45.12
2018-09-06T07:55:41.769Z,45.17
2018-09-06T07:58:12.773Z,44.84
2018-09-06T08:00:43.643Z,45.06
2018-09-06T08:03:14.489Z,45.06
2018-09-06T08:05:45.681Z,44.53
2018-09-06T08:08:16.682Z,44.90
2018-09-06T08:10:47.708Z,44.78
2018-09-06T08:13:18.697Z,44.78
2018-09-06T08:15:49.803Z,44.56
2018-09-06T08:18:20.817Z,44.38
2018-09-06T08:20:52.386Z,44.91
2018-09-06T08:23:23.767Z,44.48
2018-09-06T08:25:55.311Z,44.70
2018-09-06T08:28:26.815Z,44.77
2018-09-06T08:30:58.388Z,44.64
2018-09-06T08:33:29.697Z,44.40
2018-09-06T08:36:01.313Z,44.44
2018-09-06T08:38:32.755Z,44.47
2018-09-06T08:41:04.319Z,44.71
2018-09-06T08:43:35.780Z,44.85
2018-09-06T08:46:07.216Z,44.57
2018-09-06T08:48:38.755Z,44.51
2018-09-06T08:51:10.404Z,44.83
2018-09-06T08:53:41.778Z,45.06
2018-09-06T08:56:13.201Z,44.79
2018-09-06T08:58:44.705Z,44.62
2018-09-06T09:01:21.380Z,44.82
2018-09-06T09:03:52.779Z,44.93
2018-09-06T09:06:23.972Z,44.85
2018-09-06T09:08:54.322Z,44.94
2018-09-06T09:11:25.751Z,44.92
2018-09-06T09:13:57.320Z,45.02
2018-09-06T09:16:28.801Z,45.45
2018-09-06T09:19:00.319Z,45.15
2018-09-06T09:21:31.798Z,44.91
2018-09-06T09:24:03.916Z,45.18
2018-09-06T09:26:34.827Z,45.04
2018-09-06T09:29:06.298Z,45.36
2018-09-06T09:31:37.810Z,45.30
2018-09-06T09:34:09.512Z,45.35
2018-09-06T09:36:40.889Z,45.43
2018-09-06T09:39:12.445Z,45.34
2018-09-06T09:41:43.865Z,45.47
2018-09-06T09:44:15.508Z,45.46
2018-09-06T09:49:17.221Z,45.29
2018-09-06T09:51:48.700Z,45.24
2018-09-06T09:54:20.186Z,45.19
2018-09-06T09:56:51.693Z,45.41
2018-09-06T09:59:23.210Z,45.19
2018-09-06T10:01:59.714Z,45.10
2018-09-06T10:04:36.307Z,45.10
2018-09-06T10:07:12.792Z,45.28
2018-09-06T10:09:44.321Z,44.79
2018-09-06T10:12:15.875Z,44.39
2018-09-06T10:14:47.372Z,44.89
2018-09-06T10:17:18.883Z,44.76
2018-09-06T10:19:50.313Z,44.94
2018-09-06T10:22:21.780Z,45.21
2018-09-06T10:24:53.359Z,44.29
2018-09-06T10:27:24.821Z,43.86
2018-09-06T10:29:56.043Z,45.14
2018-09-06T10:32:27.409Z,45.29
2018-09-06T10:34:58.853Z,44.82
2018-09-06T10:37:30.318Z,45.00
2018-09-06T10:40:01.805Z,44.42
2018-09-06T10:42:33.229Z,45.10
2018-09-06T10:45:04.392Z,44.70
2018-09-06T10:47:36.022Z,44.55
2018-09-06T10:50:07.856Z,43.94
2018-09-06T10:52:39.548Z,44.86
2018-09-06T10:55:11.244Z,44.54
2018-09-06T10:57:42.719Z,44.21
2018-09-06T11:00:14.316Z,44.47
2018-09-06T11:02:45.873Z,44.83
2018-09-06T11:05:17.461Z,44.93
2018-09-06T11:07:48.985Z,44.62
2018-09-06T11:10:19.545Z,44.91
2018-09-06T11:12:51.297Z,44.91
2018-09-06T11:15:22.782Z,44.08
2018-09-06T11:17:54.336Z,44.29
2018-09-06T11:20:25.757Z,44.88
2018-09-06T11:22:57.322Z,44.89
2018-09-06T11:25:28.775Z,44.72
2018-09-06T11:27:59.938Z,45.04
2018-09-06T11:30:30.385Z,44.68
2018-09-06T11:33:01.859Z,44.56
2018-09-06T11:35:33.524Z,44.26
2018-09-06T11:38:04.869Z,44.36
2018-09-06T11:40:36.429Z,44.76
2018-09-06T11:43:07.737Z,43.50
2018-09-06T11:45:39.322Z,42.87
2018-09-06T11:48:10.797Z,42.86
2018-09-06T11:50:42.328Z,43.75
2018-09-06T11:53:13.803Z,43.66
2018-09-06T11:55:45.403Z,43.13
2018-09-06T11:58:16.775Z,44.10
2018-09-06T12:00:48.367Z,44.49
2018-09-06T12:03:19.921Z,44.24
2018-09-06T12:05:51.765Z,44.47
2018-09-06T12:08:23.429Z,44.60
2018-09-06T12:10:55.019Z,44.57
2018-09-06T12:13:26.774Z,44.73
2018-09-06T12:15:58.425Z,44.53
2018-09-06T12:18:29.928Z,44.71
2018-09-06T12:21:00.663Z,44.19
2018-09-06T12:23:32.328Z,44.21
2018-09-06T12:26:03.737Z,43.90
2018-09-06T12:28:35.461Z,43.36
2018-09-06T12:31:07.221Z,44.41
2018-09-06T12:33:38.817Z,44.67
2018-09-06T12:36:10.420Z,44.63
2018-09-06T12:38:41.858Z,43.78
2018-09-06T12:41:13.389Z,43.69
2018-09-06T12:43:45.218Z,43.25
2018-09-06T12:46:16.758Z,43.55
2018-09-06T12:48:48.444Z,42.09
2018-09-06T12:51:19.992Z,42.14
2018-09-06T12:53:52.239Z,42.66
2018-09-06T12:56:23.748Z,43.04
2018-09-06T12:58:55.396Z,43.90
2018-09-06T13:01:26.993Z,43.55
2018-09-06T13:03:58.680Z,43.45
2018-09-06T13:06:30.209Z,43.61
2018-09-06T13:09:01.790Z,42.13
2018-09-06T13:11:33.446Z,42.59
2018-09-06T13:14:04.964Z,44.00
2018-09-06T13:16:35.598Z,42.89
2018-09-06T13:19:07.051Z,43.83
2018-09-06T13:21:38.751Z,43.43
2018-09-06T13:24:10.412Z,43.11
2018-09-06T13:26:41.817Z,42.57
2018-09-06T13:29:13.316Z,42.83
2018-09-06T13:31:44.854Z,42.75
2018-09-06T13:34:16.482Z,43.42
2018-09-06T13:36:47.895Z,44.13
2018-09-06T13:39:19.418Z,43.20
2018-09-06T13:41:50.906Z,43.14
2018-09-06T13:44:22.610Z,43.40
2018-09-06T13:46:54.324Z,43.31
2018-09-06T13:49:25.817Z,43.50
2018-09-06T13:51:57.234Z,42.79
2018-09-06T13:54:28.726Z,43.22
2018-09-06T13:57:00.431Z,43.59
2018-09-06T13:59:31.842Z,43.17
2018-09-06T14:02:03.611Z,42.74
2018-09-06T14:04:35.014Z,42.66
2018-09-06T14:07:06.685Z,41.72
2018-09-06T14:09:38.224Z,43.50
2018-09-06T14:12:09.824Z,42.80
2018-09-06T14:14:41.677Z,43.74
2018-09-06T14:17:13.198Z,43.61
2018-09-06T14:19:44.776Z,43.84
2018-09-06T14:22:16.341Z,44.09
2018-09-06T14:24:47.767Z,43.81
2018-09-06T14:27:19.316Z,44.14
2018-09-06T14:29:50.856Z,43.71
2018-09-06T14:32:22.376Z,43.98
2018-09-06T14:34:53.850Z,43.00
2018-09-06T14:37:25.404Z,43.49
2018-09-06T14:39:57.080Z,42.95
2018-09-06T14:42:28.745Z,43.22
2018-09-06T14:44:59.904Z,43.79
2018-09-06T14:47:31.436Z,43.32
2018-09-06T14:50:02.906Z,42.88
2018-09-06T14:52:34.428Z,43.76
2018-09-06T14:55:05.810Z,43.99
2018-09-06T14:57:37.474Z,43.65
2018-09-06T15:00:09.238Z,44.07
2018-09-06T15:02:40.786Z,43.70
2018-09-06T15:05:12.381Z,43.33
2018-09-06T15:07:43.858Z,43.76
2018-09-06T15:10:15.430Z,44.37
2018-09-06T15:12:47.610Z,43.83
2018-09-06T15:15:19.232Z,43.37
2018-09-06T15:17:50.717Z,42.47
2018-09-06T15:20:22.387Z,43.32
2018-09-06T15:22:53.775Z,43.75
2018-09-06T15:25:25.330Z,43.86
2018-09-06T15:27:56.768Z,43.87
2018-09-06T15:30:28.354Z,43.13
2018-09-06T15:32:59.754Z,42.88
2018-09-06T15:35:31.458Z,43.39
2018-09-06T15:38:02.774Z,43.65
2018-09-06T15:40:34.311Z,43.06
2018-09-06T15:43:05.759Z,43.45
2018-09-06T15:45:37.420Z,43.65
2018-09-06T15:48:08.830Z,44.12
2018-09-06T15:50:40.320Z,42.46
2018-09-06T15:53:11.842Z,44.39
2018-09-06T15:55:43.427Z,43.05
2018-09-06T15:58:14.906Z,44.21
2018-09-06T16:00:45.760Z,42.14
2018-09-06T16:03:17.402Z,43.67
2018-09-06T16:05:48.996Z,44.28
2018-09-06T16:08:20.502Z,44.67
2018-09-06T16:10:51.985Z,43.95
2018-09-06T16:13:23.769Z,42.79
2018-09-06T16:15:55.767Z,44.05
2018-09-06T16:18:27.415Z,43.90
2018-09-06T16:20:59.205Z,44.14
2018-09-06T16:23:30.721Z,44.12
2018-09-06T16:26:02.419Z,44.42
2018-09-06T16:28:33.785Z,44.25
2018-09-06T16:31:05.328Z,44.47
2018-09-06T16:33:36.868Z,44.54
2018-09-06T16:36:08.739Z,44.46
2018-09-06T16:38:40.412Z,44.43
2018-09-06T16:41:12.652Z,43.75
2018-09-06T16:43:44.218Z,44.64
2018-09-06T16:46:15.784Z,44.50
2018-09-06T16:48:47.332Z,44.56
2018-09-06T16:51:19.219Z,44.28
2018-09-06T16:53:50.746Z,44.36
2018-09-06T16:56:22.397Z,44.61
2018-09-06T16:58:53.829Z,44.53
2018-09-06T17:01:25.393Z,44.33
2018-09-06T17:03:56.887Z,44.31
2018-09-06T17:06:28.482Z,44.65
2018-09-06T17:08:59.994Z,44.41
2018-09-06T17:13:10.852Z,44.38
2018-09-06T17:15:41.864Z,44.77
2018-09-06T17:18:13.456Z,44.48
2018-09-06T17:20:44.665Z,44.41
2018-09-06T17:23:15.754Z,44.48
2018-09-06T17:25:46.847Z,44.68
2018-09-06T17:28:17.862Z,44.36
2018-09-06T17:30:48.887Z,44.25
2018-09-06T17:33:20.281Z,44.41
2018-09-06T17:35:51.713Z,44.52
2018-09-06T17:38:23.215Z,44.73
2018-09-06T17:40:54.664Z,44.49
2018-09-06T17:43:26.214Z,44.59
2018-09-06T17:45:58.216Z,44.63
2018-09-06T17:48:30.593Z,44.58
2018-09-06T17:51:02.737Z,44.30
2018-09-06T17:53:34.291Z,44.40
2018-09-06T17:56:05.652Z,44.20
2018-09-06T17:58:36.911Z,44.55
2018-09-06T18:01:27.554Z,44.73
2018-09-06T18:03:58.894Z,44.70
2018-09-06T18:06:30.490Z,44.14
2018-09-06T18:09:02.036Z,44.78
2018-09-06T18:11:33.695Z,44.62
2018-09-06T18:14:04.977Z,44.12
2018-09-06T18:16:35.521Z,43.97
2018-09-06T18:19:06.878Z,43.73
2018-09-06T18:21:38.332Z,43.39
2018-09-06T18:24:09.845Z,41.71
2018-09-06T18:26:41.310Z,43.07
2018-09-06T18:29:14.705Z,43.30
2018-09-06T18:31:57.419Z,43.98
2018-09-06T18:34:28.790Z,42.30
2018-09-06T18:36:59.815Z,42.42
2018-09-06T18:39:30.877Z,42.30
2018-09-06T18:42:02.507Z,41.63
2018-09-06T18:44:33.978Z,42.70
2018-09-06T18:47:06.530Z,42.95
2018-09-06T18:49:37.899Z,41.02
2018-09-06T18:52:09.545Z,40.21
2018-09-06T18:54:40.911Z,41.45
2018-09-06T18:57:12.334Z,42.95
2018-09-06T18:59:43.700Z,41.00
2018-09-06T19:02:15.536Z,40.83
2018-09-06T19:04:46.748Z,40.88
2018-09-06T19:07:19.359Z,40.47
2018-09-06T19:09:51.510Z,41.32
2018-09-06T19:12:23.223Z,41.79
2018-09-06T19:14:54.694Z,40.63
2018-09-06T19:17:26.303Z,42.55
2018-09-06T19:19:57.742Z,41.67
2018-09-06T19:22:29.204Z,41.19
2018-09-06T19:25:01.327Z,41.65
2018-09-06T19:27:32.779Z,41.68
2018-09-06T19:30:04.317Z,41.90
2018-09-06T19:32:35.758Z,43.17
2018-09-06T19:35:07.408Z,42.68
2018-09-06T19:37:38.775Z,40.92
2018-09-06T19:40:10.204Z,42.69
2018-09-06T19:42:41.793Z,42.04
2018-09-06T19:45:13.480Z,42.19
2018-09-06T19:47:44.781Z,42.23
2018-09-06T19:50:18.225Z,42.15
2018-09-06T19:52:49.686Z,41.75
2018-09-06T19:55:21.211Z,42.23
2018-09-06T19:57:52.719Z,41.59
2018-09-06T20:00:23.911Z,43.64
2018-09-06T20:02:55.311Z,41.08
2018-09-06T20:05:26.752Z,40.84
2018-09-06T20:07:57.867Z,41.84
2018-09-06T20:10:29.371Z,42.86
2018-09-06T20:13:00.827Z,43.47
2018-09-06T20:15:32.216Z,43.24
2018-09-06T20:18:03.758Z,43.30
2018-09-06T20:20:35.297Z,43.58
2018-09-06T20:23:06.611Z,42.82
2018-09-06T20:25:38.395Z,42.87
2018-09-06T20:28:09.936Z,42.69
2018-09-06T20:30:41.201Z,42.79
2018-09-06T20:33:12.645Z,41.86
2018-09-06T20:35:44.200Z,42.33
2018-09-06T20:38:15.786Z,43.23
2018-09-06T20:40:47.398Z,43.55
2018-09-06T20:46:00.207Z,43.19
2018-09-06T20:48:31.805Z,43.59
2018-09-06T20:51:02.633Z,43.32
2018-09-06T20:53:33.489Z,43.73
2018-09-06T20:56:04.642Z,43.72
2018-09-06T20:58:35.707Z,43.32
2018-09-06T21:01:06.697Z,43.57
2018-09-06T21:03:37.730Z,43.64
2018-09-06T21:06:08.835Z,43.55
2018-09-06T21:08:39.841Z,43.04
2018-09-06T21:11:10.815Z,43.54
2018-09-06T21:13:41.564Z,43.82
2018-09-06T21:16:12.487Z,43.21
2018-09-06T21:18:43.676Z,43.53
2018-09-06T21:21:14.732Z,43.10
2018-09-06T21:23:45.807Z,43.05
2018-09-06T21:26:16.815Z,42.81
2018-09-06T21:28:47.844Z,43.30
2018-09-06T21:31:18.807Z,43.15
2018-09-06T21:33:50.377Z,43.34
2018-09-06T21:36:21.663Z,43.19
2018-09-06T21:38:53.191Z,43.57
2018-09-06T21:41:24.680Z,42.95
2018-09-06T21:43:56.186Z,42.58
2018-09-06T21:46:27.716Z,43.31
2018-09-06T21:48:59.421Z,42.78
2018-09-06T21:51:30.893Z,42.03
2018-09-06T21:54:02.588Z,43.05
2018-09-06T21:56:33.981Z,43.65
2018-09-06T21:59:05.532Z,42.76
2018-09-06T22:01:36.902Z,42.96
2018-09-06T22:04:09.361Z,42.54
2018-09-06T22:06:40.986Z,42.64
2018-09-06T22:09:14.195Z,42.54
2018-09-06T22:11:45.759Z,43.34
2018-09-06T22:14:17.308Z,42.55
2018-09-06T22:16:48.767Z,41.99
2018-09-06T22:19:20.376Z,43.18
2018-09-06T22:21:51.718Z,43.13
2018-09-06T22:24:23.281Z,42.84
2018-09-06T22:26:54.866Z,42.66
2018-09-06T22:29:26.325Z,43.16
2018-09-06T22:31:57.832Z,42.03
2018-09-06T22:34:29.432Z,41.93
2018-09-06T22:37:01.220Z,42.25
2018-09-06T22:39:32.726Z,42.55
2018-09-06T22:42:04.736Z,41.17
2018-09-06T22:44:35.809Z,41.97
2018-09-06T22:47:07.377Z,41.38
2018-09-06T22:49:38.884Z,41.69
2018-09-06T22:52:10.441Z,41.35
2018-09-06T22:54:41.711Z,42.26
2018-09-06T22:57:13.332Z,41.96
2018-09-06T22:59:44.769Z,42.08
2018-09-06T23:02:16.442Z,42.00
2018-09-06T23:04:47.792Z,42.82
2018-09-06T23:07:19.431Z,42.27
2018-09-06T23:09:50.797Z,42.34
2018-09-06T23:12:22.380Z,42.33
2018-09-06T23:14:53.856Z,42.45
2018-09-06T23:17:25.523Z,41.82
2018-09-06T23:19:57.217Z,42.84
2018-09-06T23:22:28.658Z,42.78
2018-09-06T23:25:00.203Z,42.39
2018-09-06T23:27:31.704Z,42.83
2018-09-06T23:30:03.004Z,42.71
2018-09-06T23:32:34.702Z,42.92
2018-09-06T23:35:06.222Z,42.67
2018-09-06T23:37:37.705Z,43.02
2018-09-06T23:40:09.151Z,42.96
2018-09-06T23:42:40.694Z,42.92
2018-09-06T23:45:12.258Z,43.22
2018-09-06T23:47:43.796Z,42.74
2018-09-06T23:50:15.308Z,42.99
2018-09-06T23:52:46.777Z,43.50
2018-09-06T23:55:18.324Z,43.13
2018-09-06T23:57:49.999Z,42.75
